sensor_id;sensor_type;location;lat;lon;timestamp;pressure;altitude;pressure_sealevel;temperature;humidity
22333;BME280;11334;36.986;-121.936;2023-05-21T00:01:07;101387.22;;;32.57;33.85
22333;BME280;11334;36.986;-121.936;2023-05-21T00:03:33;101384.66;;;32.70;33.48
22333;BME280;11334;36.986;-121.936;2023-05-21T00:06:01;101375.78;;;32.83;33.49
22333;BME280;11334;36.986;-121.936;2023-05-21T00:08:28;101374.81;;;33.02;33.47
22333;BME280;11334;36.986;-121.936;2023-05-21T00:10:54;101375.00;;;33.10;32.96
22333;BME280;11334;36.986;-121.936;2023-05-21T00:13:21;101366.22;;;33.09;33.13
22333;BME280;11334;36.986;-121.936;2023-05-21T00:15:47;101374.69;;;33.17;32.96
22333;BME280;11334;36.986;-121.936;2023-05-21T00:18:13;101369.81;;;33.09;32.62
22333;BME280;11334;36.986;-121.936;2023-05-21T00:20:39;101371.72;;;33.42;32.95
22333;BME280;11334;36.986;-121.936;2023-05-21T00:23:06;101369.56;;;33.62;32.72
22333;BME280;11334;36.986;-121.936;2023-05-21T00:25:32;101362.06;;;33.67;32.04
22333;BME280;11334;36.986;-121.936;2023-05-21T00:27:58;101371.66;;;33.75;31.70
22333;BME280;11334;36.986;-121.936;2023-05-21T00:30:25;101376.38;;;33.92;31.97
22333;BME280;11334;36.986;-121.936;2023-05-21T00:32:51;101369.72;;;33.98;31.58
22333;BME280;11334;36.986;-121.936;2023-05-21T00:35:17;101381.50;;;34.22;31.63
22333;BME280;11334;36.986;-121.936;2023-05-21T00:37:44;101380.53;;;33.90;31.10
22333;BME280;11334;36.986;-121.936;2023-05-21T00:40:12;101369.00;;;34.11;31.02
22333;BME280;11334;36.986;-121.936;2023-05-21T00:42:38;101370.88;;;34.15;30.92
22333;BME280;11334;36.986;-121.936;2023-05-21T00:45:06;101372.59;;;34.30;30.17
22333;BME280;11334;36.986;-121.936;2023-05-21T00:47:33;101370.63;;;34.53;30.19
22333;BME280;11334;36.986;-121.936;2023-05-21T00:50:02;101367.97;;;34.85;30.00
22333;BME280;11334;36.986;-121.936;2023-05-21T00:52:28;101367.78;;;34.95;30.18
22333;BME280;11334;36.986;-121.936;2023-05-21T00:54:55;101363.09;;;34.95;30.49
22333;BME280;11334;36.986;-121.936;2023-05-21T00:57:22;101371.81;;;35.02;30.09
22333;BME280;11334;36.986;-121.936;2023-05-21T00:59:52;101374.69;;;35.29;30.32
22333;BME280;11334;36.986;-121.936;2023-05-21T01:02:18;101376.72;;;35.05;29.87
22333;BME280;11334;36.986;-121.936;2023-05-21T01:04:45;101375.16;;;35.31;29.93
22333;BME280;11334;36.986;-121.936;2023-05-21T01:07:12;101370.47;;;35.31;30.08
22333;BME280;11334;36.986;-121.936;2023-05-21T01:09:40;101370.50;;;35.44;29.71
22333;BME280;11334;36.986;-121.936;2023-05-21T01:12:08;101366.69;;;35.40;30.09
22333;BME280;11334;36.986;-121.936;2023-05-21T01:14:36;101366.72;;;35.09;30.51
22333;BME280;11334;36.986;-121.936;2023-05-21T01:17:04;101369.81;;;34.89;30.94
22333;BME280;11334;36.986;-121.936;2023-05-21T01:19:35;101364.06;;;35.04;30.60
22333;BME280;11334;36.986;-121.936;2023-05-21T01:22:06;101368.00;;;34.98;30.58
22333;BME280;11334;36.986;-121.936;2023-05-21T01:24:33;101362.38;;;34.72;31.32
22333;BME280;11334;36.986;-121.936;2023-05-21T01:27:01;101360.41;;;34.54;31.72
22333;BME280;11334;36.986;-121.936;2023-05-21T01:29:28;101356.56;;;34.13;32.43
22333;BME280;11334;36.986;-121.936;2023-05-21T01:37:22;101354.81;;;33.25;33.22
22333;BME280;11334;36.986;-121.936;2023-05-21T01:39:59;101361.50;;;32.81;34.11
22333;BME280;11334;36.986;-121.936;2023-05-21T01:42:29;101366.75;;;32.40;34.60
22333;BME280;11334;36.986;-121.936;2023-05-21T01:44:56;101377.34;;;31.98;34.88
22333;BME280;11334;36.986;-121.936;2023-05-21T01:47:26;101370.59;;;31.56;36.29
22333;BME280;11334;36.986;-121.936;2023-05-21T01:49:54;101372.81;;;31.40;35.83
22333;BME280;11334;36.986;-121.936;2023-05-21T01:52:21;101379.09;;;31.20;37.06
22333;BME280;11334;36.986;-121.936;2023-05-21T01:54:47;101376.66;;;31.19;36.90
22333;BME280;11334;36.986;-121.936;2023-05-21T01:57:16;101373.63;;;31.01;36.96
22333;BME280;11334;36.986;-121.936;2023-05-21T01:59:43;101379.41;;;30.99;35.58
22333;BME280;11334;36.986;-121.936;2023-05-21T02:02:10;101371.44;;;30.98;35.24
22333;BME280;11334;36.986;-121.936;2023-05-21T02:04:36;101377.47;;;31.05;35.90
22333;BME280;11334;36.986;-121.936;2023-05-21T02:07:06;101365.16;;;31.12;35.04
22333;BME280;11334;36.986;-121.936;2023-05-21T02:09:32;101369.00;;;31.31;34.80
22333;BME280;11334;36.986;-121.936;2023-05-21T02:11:58;101367.34;;;31.30;34.43
22333;BME280;11334;36.986;-121.936;2023-05-21T02:14:25;101376.09;;;31.17;35.18
22333;BME280;11334;36.986;-121.936;2023-05-21T02:16:54;101376.38;;;30.86;34.96
22333;BME280;11334;36.986;-121.936;2023-05-21T02:19:21;101381.91;;;30.16;36.81
22333;BME280;11334;36.986;-121.936;2023-05-21T02:21:47;101388.88;;;29.82;37.09
22333;BME280;11334;36.986;-121.936;2023-05-21T02:24:14;101388.34;;;29.08;37.86
22333;BME280;11334;36.986;-121.936;2023-05-21T02:26:40;101384.31;;;28.59;38.86
22333;BME280;11334;36.986;-121.936;2023-05-21T02:29:06;101389.81;;;28.16;39.17
22333;BME280;11334;36.986;-121.936;2023-05-21T02:31:33;101398.06;;;27.63;40.43
22333;BME280;11334;36.986;-121.936;2023-05-21T02:33:59;101403.03;;;27.17;41.21
22333;BME280;11334;36.986;-121.936;2023-05-21T02:36:26;101405.66;;;26.79;42.28
22333;BME280;11334;36.986;-121.936;2023-05-21T02:38:53;101399.25;;;26.30;43.18
22333;BME280;11334;36.986;-121.936;2023-05-21T02:41:22;101409.94;;;25.98;43.71
22333;BME280;11334;36.986;-121.936;2023-05-21T02:43:48;101405.50;;;25.46;45.44
22333;BME280;11334;36.986;-121.936;2023-05-21T02:46:14;101398.53;;;25.16;46.61
22333;BME280;11334;36.986;-121.936;2023-05-21T02:48:41;101409.69;;;24.86;47.58
22333;BME280;11334;36.986;-121.936;2023-05-21T02:51:07;101413.25;;;24.69;47.90
22333;BME280;11334;36.986;-121.936;2023-05-21T02:53:33;101412.25;;;24.52;48.75
22333;BME280;11334;36.986;-121.936;2023-05-21T02:55:59;101404.25;;;24.28;50.16
22333;BME280;11334;36.986;-121.936;2023-05-21T02:58:25;101403.03;;;24.06;50.66
22333;BME280;11334;36.986;-121.936;2023-05-21T03:00:54;101406.59;;;23.89;51.06
22333;BME280;11334;36.986;-121.936;2023-05-21T03:03:21;101403.72;;;23.66;52.39
22333;BME280;11334;36.986;-121.936;2023-05-21T03:05:47;101403.91;;;23.47;52.85
22333;BME280;11334;36.986;-121.936;2023-05-21T03:08:13;101403.25;;;23.27;53.82
22333;BME280;11334;36.986;-121.936;2023-05-21T03:10:40;101401.56;;;23.09;54.32
22333;BME280;11334;36.986;-121.936;2023-05-21T03:13:06;101406.88;;;22.97;54.72
22333;BME280;11334;36.986;-121.936;2023-05-21T03:15:32;101410.94;;;22.82;55.84
22333;BME280;11334;36.986;-121.936;2023-05-21T03:17:59;101414.75;;;22.68;55.73
22333;BME280;11334;36.986;-121.936;2023-05-21T03:20:25;101407.75;;;22.61;56.14
22333;BME280;11334;36.986;-121.936;2023-05-21T03:22:52;101408.41;;;22.50;56.66
22333;BME280;11334;36.986;-121.936;2023-05-21T03:25:20;101410.81;;;22.34;57.49
22333;BME280;11334;36.986;-121.936;2023-05-21T03:27:50;101412.53;;;22.22;57.65
22333;BME280;11334;36.986;-121.936;2023-05-21T03:30:16;101408.03;;;22.10;58.26
22333;BME280;11334;36.986;-121.936;2023-05-21T03:32:43;101409.50;;;21.99;58.48
22333;BME280;11334;36.986;-121.936;2023-05-21T03:35:09;101415.09;;;21.91;58.98
22333;BME280;11334;36.986;-121.936;2023-05-21T03:37:35;101415.56;;;21.82;59.47
22333;BME280;11334;36.986;-121.936;2023-05-21T03:40:02;101413.31;;;21.66;59.96
22333;BME280;11334;36.986;-121.936;2023-05-21T03:42:29;101420.59;;;21.59;60.49
22333;BME280;11334;36.986;-121.936;2023-05-21T03:44:55;101418.75;;;21.47;61.27
22333;BME280;11334;36.986;-121.936;2023-05-21T03:47:21;101420.22;;;21.37;61.12
22333;BME280;11334;36.986;-121.936;2023-05-21T03:49:48;101425.41;;;21.19;61.95
22333;BME280;11334;36.986;-121.936;2023-05-21T03:52:14;101425.81;;;21.16;62.25
22333;BME280;11334;36.986;-121.936;2023-05-21T03:54:40;101431.00;;;21.05;63.10
22333;BME280;11334;36.986;-121.936;2023-05-21T03:57:06;101423.75;;;20.99;63.18
22333;BME280;11334;36.986;-121.936;2023-05-21T03:59:32;101426.03;;;20.95;63.41
22333;BME280;11334;36.986;-121.936;2023-05-21T04:01:59;101428.69;;;20.83;64.12
22333;BME280;11334;36.986;-121.936;2023-05-21T04:04:25;101435.34;;;20.74;64.54
22333;BME280;11334;36.986;-121.936;2023-05-21T04:06:54;101429.50;;;20.70;64.66
22333;BME280;11334;36.986;-121.936;2023-05-21T04:09:20;101428.06;;;20.61;64.82
22333;BME280;11334;36.986;-121.936;2023-05-21T04:11:46;101434.63;;;20.53;65.39
22333;BME280;11334;36.986;-121.936;2023-05-21T04:14:13;101430.06;;;20.47;65.29
22333;BME280;11334;36.986;-121.936;2023-05-21T04:16:39;101437.28;;;20.40;65.94
22333;BME280;11334;36.986;-121.936;2023-05-21T04:19:08;101427.50;;;20.26;66.59
22333;BME280;11334;36.986;-121.936;2023-05-21T04:21:35;101435.56;;;20.20;67.17
22333;BME280;11334;36.986;-121.936;2023-05-21T04:24:01;101434.06;;;20.11;67.43
22333;BME280;11334;36.986;-121.936;2023-05-21T04:26:28;101438.16;;;20.00;68.12
22333;BME280;11334;36.986;-121.936;2023-05-21T04:28:58;101444.53;;;19.93;68.41
22333;BME280;11334;36.986;-121.936;2023-05-21T04:31:29;101441.19;;;19.85;68.73
22333;BME280;11334;36.986;-121.936;2023-05-21T04:33:57;101446.75;;;19.77;68.59
22333;BME280;11334;36.986;-121.936;2023-05-21T04:36:24;101450.81;;;19.73;68.85
22333;BME280;11334;36.986;-121.936;2023-05-21T04:38:50;101455.13;;;19.67;69.54
22333;BME280;11334;36.986;-121.936;2023-05-21T04:41:16;101458.34;;;19.57;69.70
22333;BME280;11334;36.986;-121.936;2023-05-21T04:43:43;101451.88;;;19.45;70.75
22333;BME280;11334;36.986;-121.936;2023-05-21T04:46:09;101456.81;;;19.41;70.83
22333;BME280;11334;36.986;-121.936;2023-05-21T04:48:36;101466.06;;;19.32;71.06
22333;BME280;11334;36.986;-121.936;2023-05-21T04:51:02;101456.41;;;19.17;71.68
22333;BME280;11334;36.986;-121.936;2023-05-21T04:53:30;101462.50;;;19.05;71.19
22333;BME280;11334;36.986;-121.936;2023-05-21T04:55:56;101469.28;;;18.80;72.65
22333;BME280;11334;36.986;-121.936;2023-05-21T04:58:24;101479.41;;;18.85;72.83
22333;BME280;11334;36.986;-121.936;2023-05-21T05:00:50;101470.94;;;18.81;72.83
22333;BME280;11334;36.986;-121.936;2023-05-21T05:03:18;101481.41;;;18.76;72.52
22333;BME280;11334;36.986;-121.936;2023-05-21T05:05:44;101489.84;;;18.73;73.28
22333;BME280;11334;36.986;-121.936;2023-05-21T05:08:11;101485.03;;;18.69;73.33
22333;BME280;11334;36.986;-121.936;2023-05-21T05:10:37;101485.44;;;18.66;73.52
22333;BME280;11334;36.986;-121.936;2023-05-21T05:13:03;101491.28;;;18.55;73.83
22333;BME280;11334;36.986;-121.936;2023-05-21T05:15:29;101497.59;;;18.48;74.19
22333;BME280;11334;36.986;-121.936;2023-05-21T05:17:56;101498.38;;;18.42;74.67
22333;BME280;11334;36.986;-121.936;2023-05-21T05:20:22;101505.09;;;18.38;75.26
22333;BME280;11334;36.986;-121.936;2023-05-21T05:22:48;101504.41;;;18.30;75.91
22333;BME280;11334;36.986;-121.936;2023-05-21T05:25:14;101508.13;;;18.29;75.87
22333;BME280;11334;36.986;-121.936;2023-05-21T05:27:41;101507.25;;;18.28;76.16
22333;BME280;11334;36.986;-121.936;2023-05-21T05:30:07;101506.38;;;18.21;76.68
22333;BME280;11334;36.986;-121.936;2023-05-21T05:32:34;101504.91;;;18.04;76.83
22333;BME280;11334;36.986;-121.936;2023-05-21T05:35:01;101515.97;;;18.02;76.74
22333;BME280;11334;36.986;-121.936;2023-05-21T05:37:27;101511.59;;;18.01;76.57
22333;BME280;11334;36.986;-121.936;2023-05-21T05:39:53;101517.34;;;17.98;76.19
22333;BME280;11334;36.986;-121.936;2023-05-21T05:42:19;101510.03;;;17.92;76.48
22333;BME280;11334;36.986;-121.936;2023-05-21T05:44:45;101515.75;;;17.89;76.48
22333;BME280;11334;36.986;-121.936;2023-05-21T05:47:11;101508.28;;;17.84;76.65
22333;BME280;11334;36.986;-121.936;2023-05-21T05:49:38;101506.97;;;17.80;77.35
22333;BME280;11334;36.986;-121.936;2023-05-21T05:52:04;101512.34;;;17.80;77.08
22333;BME280;11334;36.986;-121.936;2023-05-21T05:54:31;101504.94;;;17.82;77.23
22333;BME280;11334;36.986;-121.936;2023-05-21T05:56:57;101506.97;;;17.80;77.80
22333;BME280;11334;36.986;-121.936;2023-05-21T05:59:23;101501.44;;;17.68;78.60
22333;BME280;11334;36.986;-121.936;2023-05-21T06:01:50;101499.75;;;17.67;78.83
22333;BME280;11334;36.986;-121.936;2023-05-21T06:04:16;101498.63;;;17.47;79.63
22333;BME280;11334;36.986;-121.936;2023-05-21T06:06:42;101499.88;;;17.37;80.33
22333;BME280;11334;36.986;-121.936;2023-05-21T06:09:08;101496.13;;;17.45;80.09
22333;BME280;11334;36.986;-121.936;2023-05-21T06:11:34;101498.16;;;17.43;80.31
22333;BME280;11334;36.986;-121.936;2023-05-21T06:14:00;101497.50;;;17.41;80.66
22333;BME280;11334;36.986;-121.936;2023-05-21T06:16:27;101494.53;;;17.37;80.78
22333;BME280;11334;36.986;-121.936;2023-05-21T06:18:56;101487.69;;;17.34;80.91
22333;BME280;11334;36.986;-121.936;2023-05-21T06:21:22;101490.69;;;17.17;82.51
22333;BME280;11334;36.986;-121.936;2023-05-21T06:23:48;101495.63;;;17.28;82.26
22333;BME280;11334;36.986;-121.936;2023-05-21T06:26:15;101491.75;;;17.30;82.56
22333;BME280;11334;36.986;-121.936;2023-05-21T06:28:43;101506.34;;;17.28;82.60
22333;BME280;11334;36.986;-121.936;2023-05-21T06:31:10;101510.59;;;17.22;82.89
22333;BME280;11334;36.986;-121.936;2023-05-21T06:33:36;101500.69;;;17.23;83.33
22333;BME280;11334;36.986;-121.936;2023-05-21T06:36:02;101512.81;;;17.33;83.03
22333;BME280;11334;36.986;-121.936;2023-05-21T06:38:29;101509.59;;;17.38;82.70
22333;BME280;11334;36.986;-121.936;2023-05-21T06:40:55;101503.06;;;17.40;82.85
22333;BME280;11334;36.986;-121.936;2023-05-21T06:43:23;101506.69;;;17.47;83.17
22333;BME280;11334;36.986;-121.936;2023-05-21T06:45:49;101495.97;;;17.47;82.44
22333;BME280;11334;36.986;-121.936;2023-05-21T06:48:15;101492.41;;;17.46;82.71
22333;BME280;11334;36.986;-121.936;2023-05-21T06:50:42;101506.75;;;17.53;82.52
22333;BME280;11334;36.986;-121.936;2023-05-21T06:53:09;101503.72;;;17.56;82.43
22333;BME280;11334;36.986;-121.936;2023-05-21T06:55:35;101508.91;;;17.58;82.22
22333;BME280;11334;36.986;-121.936;2023-05-21T06:58:01;101508.44;;;17.54;82.09
22333;BME280;11334;36.986;-121.936;2023-05-21T07:00:28;101505.41;;;17.57;82.23
22333;BME280;11334;36.986;-121.936;2023-05-21T07:02:54;101501.31;;;17.47;82.42
22333;BME280;11334;36.986;-121.936;2023-05-21T07:05:20;101498.72;;;17.53;82.77
22333;BME280;11334;36.986;-121.936;2023-05-21T07:07:46;101499.47;;;17.47;83.04
22333;BME280;11334;36.986;-121.936;2023-05-21T07:10:12;101502.41;;;17.38;83.83
22333;BME280;11334;36.986;-121.936;2023-05-21T07:12:39;101498.16;;;17.43;83.49
22333;BME280;11334;36.986;-121.936;2023-05-21T07:15:06;101493.44;;;17.45;84.13
22333;BME280;11334;36.986;-121.936;2023-05-21T07:17:33;101494.75;;;17.49;83.74
22333;BME280;11334;36.986;-121.936;2023-05-21T07:20:00;101494.56;;;17.51;83.33
22333;BME280;11334;36.986;-121.936;2023-05-21T07:22:26;101490.22;;;17.50;83.74
22333;BME280;11334;36.986;-121.936;2023-05-21T07:24:52;101491.78;;;17.44;83.63
22333;BME280;11334;36.986;-121.936;2023-05-21T07:27:18;101493.44;;;17.45;83.89
22333;BME280;11334;36.986;-121.936;2023-05-21T07:29:45;101498.97;;;17.44;83.77
22333;BME280;11334;36.986;-121.936;2023-05-21T07:32:11;101486.25;;;17.46;84.46
22333;BME280;11334;36.986;-121.936;2023-05-21T07:34:37;101489.03;;;17.52;84.90
22333;BME280;11334;36.986;-121.936;2023-05-21T07:37:03;101499.25;;;17.49;85.20
22333;BME280;11334;36.986;-121.936;2023-05-21T07:39:30;101487.72;;;17.48;85.23
22333;BME280;11334;36.986;-121.936;2023-05-21T07:41:56;101486.34;;;17.52;85.09
22333;BME280;11334;36.986;-121.936;2023-05-21T07:44:22;101485.31;;;17.53;84.63
22333;BME280;11334;36.986;-121.936;2023-05-21T07:46:49;101482.66;;;17.53;84.99
22333;BME280;11334;36.986;-121.936;2023-05-21T07:49:15;101487.00;;;17.54;84.91
22333;BME280;11334;36.986;-121.936;2023-05-21T07:51:42;101473.31;;;17.49;84.78
22333;BME280;11334;36.986;-121.936;2023-05-21T07:54:09;101484.94;;;17.56;85.45
22333;BME280;11334;36.986;-121.936;2023-05-21T07:56:35;101475.09;;;17.57;85.45
22333;BME280;11334;36.986;-121.936;2023-05-21T07:59:05;101480.25;;;17.58;85.53
22333;BME280;11334;36.986;-121.936;2023-05-21T08:01:31;101480.06;;;17.60;85.54
22333;BME280;11334;36.986;-121.936;2023-05-21T08:03:58;101480.44;;;17.57;85.65
22333;BME280;11334;36.986;-121.936;2023-05-21T08:06:31;101469.63;;;17.50;85.20
22333;BME280;11334;36.986;-121.936;2023-05-21T08:09:02;101474.81;;;17.52;84.40
22333;BME280;11334;36.986;-121.936;2023-05-21T08:11:29;101464.91;;;17.52;83.87
22333;BME280;11334;36.986;-121.936;2023-05-21T08:13:55;101462.88;;;17.54;83.50
22333;BME280;11334;36.986;-121.936;2023-05-21T08:16:22;101454.00;;;17.54;83.51
22333;BME280;11334;36.986;-121.936;2023-05-21T08:18:49;101458.16;;;17.42;84.53
22333;BME280;11334;36.986;-121.936;2023-05-21T08:21:16;101459.53;;;17.38;84.43
22333;BME280;11334;36.986;-121.936;2023-05-21T08:23:43;101450.19;;;17.34;84.49
22333;BME280;11334;36.986;-121.936;2023-05-21T08:26:09;101446.00;;;17.32;84.75
22333;BME280;11334;36.986;-121.936;2023-05-21T08:28:37;101455.53;;;17.20;85.61
22333;BME280;11334;36.986;-121.936;2023-05-21T08:31:04;101446.63;;;17.19;86.25
22333;BME280;11334;36.986;-121.936;2023-05-21T08:33:30;101446.72;;;17.11;86.54
22333;BME280;11334;36.986;-121.936;2023-05-21T08:35:56;101444.09;;;17.04;87.12
22333;BME280;11334;36.986;-121.936;2023-05-21T08:38:23;101444.63;;;16.99;87.62
22333;BME280;11334;36.986;-121.936;2023-05-21T08:40:50;101431.69;;;16.88;88.11
22333;BME280;11334;36.986;-121.936;2023-05-21T08:43:18;101449.59;;;16.88;88.01
22333;BME280;11334;36.986;-121.936;2023-05-21T08:45:46;101445.72;;;16.90;88.17
22333;BME280;11334;36.986;-121.936;2023-05-21T08:48:18;101446.56;;;16.91;88.05
22333;BME280;11334;36.986;-121.936;2023-05-21T08:50:49;101452.56;;;16.93;89.60
22333;BME280;11334;36.986;-121.936;2023-05-21T08:53:16;101441.84;;;16.93;89.03
22333;BME280;11334;36.986;-121.936;2023-05-21T08:55:43;101447.84;;;16.95;89.16
22333;BME280;11334;36.986;-121.936;2023-05-21T08:58:09;101441.66;;;16.94;88.82
22333;BME280;11334;36.986;-121.936;2023-05-21T09:00:36;101452.84;;;16.98;89.07
22333;BME280;11334;36.986;-121.936;2023-05-21T09:03:04;101445.16;;;16.95;88.47
22333;BME280;11334;36.986;-121.936;2023-05-21T09:05:38;101445.53;;;16.92;88.43
22333;BME280;11334;36.986;-121.936;2023-05-21T09:08:06;101432.13;;;16.92;88.71
22333;BME280;11334;36.986;-121.936;2023-05-21T09:10:45;101436.66;;;16.91;88.72
22333;BME280;11334;36.986;-121.936;2023-05-21T09:13:13;101438.81;;;16.96;89.28
22333;BME280;11334;36.986;-121.936;2023-05-21T09:15:45;101440.28;;;16.98;89.38
22333;BME280;11334;36.986;-121.936;2023-05-21T09:18:12;101435.31;;;16.95;88.91
22333;BME280;11334;36.986;-121.936;2023-05-21T09:20:39;101434.94;;;16.98;89.22
22333;BME280;11334;36.986;-121.936;2023-05-21T09:23:07;101439.63;;;16.96;89.60
22333;BME280;11334;36.986;-121.936;2023-05-21T09:25:45;101441.50;;;16.96;89.69
22333;BME280;11334;36.986;-121.936;2023-05-21T09:28:13;101441.78;;;17.01;90.10
22333;BME280;11334;36.986;-121.936;2023-05-21T09:30:47;101444.63;;;16.99;90.40
22333;BME280;11334;36.986;-121.936;2023-05-21T09:33:24;101441.59;;;17.02;90.19
22333;BME280;11334;36.986;-121.936;2023-05-21T09:35:51;101436.72;;;17.06;90.11
22333;BME280;11334;36.986;-121.936;2023-05-21T09:38:17;101449.44;;;17.04;90.19
22333;BME280;11334;36.986;-121.936;2023-05-21T09:40:46;101446.75;;;17.04;89.87
22333;BME280;11334;36.986;-121.936;2023-05-21T09:43:14;101444.63;;;16.99;90.36
22333;BME280;11334;36.986;-121.936;2023-05-21T09:45:56;101442.91;;;17.06;90.26
22333;BME280;11334;36.986;-121.936;2023-05-21T09:48:44;101446.31;;;17.00;89.98
22333;BME280;11334;36.986;-121.936;2023-05-21T09:51:15;101444.25;;;17.02;90.15
22333;BME280;11334;36.986;-121.936;2023-05-21T09:53:52;101442.06;;;17.06;89.86
22333;BME280;11334;36.986;-121.936;2023-05-21T09:56:27;101435.00;;;17.12;90.09
22333;BME280;11334;36.986;-121.936;2023-05-21T09:58:58;101435.88;;;17.05;89.88
22333;BME280;11334;36.986;-121.936;2023-05-21T10:01:26;101427.97;;;17.11;90.08
22333;BME280;11334;36.986;-121.936;2023-05-21T10:03:55;101434.16;;;17.12;89.99
22333;BME280;11334;36.986;-121.936;2023-05-21T10:06:29;101436.00;;;17.11;89.51
22333;BME280;11334;36.986;-121.936;2023-05-21T10:08:59;101438.19;;;17.08;89.92
22333;BME280;11334;36.986;-121.936;2023-05-21T10:11:30;101431.34;;;17.06;90.11
22333;BME280;11334;36.986;-121.936;2023-05-21T10:14:00;101436.72;;;17.06;90.03
22333;BME280;11334;36.986;-121.936;2023-05-21T10:16:32;101430.88;;;17.02;90.26
22333;BME280;11334;36.986;-121.936;2023-05-21T10:18:59;101427.72;;;16.99;90.42
22333;BME280;11334;36.986;-121.936;2023-05-21T10:21:26;101422.00;;;17.02;89.98
22333;BME280;11334;36.986;-121.936;2023-05-21T10:23:54;101424.88;;;17.00;89.98
22333;BME280;11334;36.986;-121.936;2023-05-21T10:26:23;101424.59;;;16.95;90.58
22333;BME280;11334;36.986;-121.936;2023-05-21T10:28:51;101400.75;;;16.86;91.31
22333;BME280;11334;36.986;-121.936;2023-05-21T10:31:17;101414.59;;;16.89;91.21
22333;BME280;11334;36.986;-121.936;2023-05-21T10:33:44;101421.91;;;16.95;91.49
22333;BME280;11334;36.986;-121.936;2023-05-21T10:36:11;101417.28;;;16.89;91.92
22333;BME280;11334;36.986;-121.936;2023-05-21T10:38:38;101427.16;;;16.89;92.07
22333;BME280;11334;36.986;-121.936;2023-05-21T10:41:06;101424.31;;;16.90;92.76
22333;BME280;11334;36.986;-121.936;2023-05-21T10:52:54;101425.31;;;16.89;94.65
22333;BME280;11334;36.986;-121.936;2023-05-21T10:56:13;101417.88;;;16.77;95.16
22333;BME280;11334;36.986;-121.936;2023-05-21T11:01:31;101417.13;;;16.69;96.92
22333;BME280;11334;36.986;-121.936;2023-05-21T11:03:58;101407.53;;;16.74;97.44
22333;BME280;11334;36.986;-121.936;2023-05-21T11:06:25;101414.22;;;16.78;97.47
22333;BME280;11334;36.986;-121.936;2023-05-21T11:08:52;101401.81;;;16.77;98.29
22333;BME280;11334;36.986;-121.936;2023-05-21T11:11:42;101411.41;;;16.72;98.33
22333;BME280;11334;36.986;-121.936;2023-05-21T11:14:30;101415.72;;;16.73;97.66
22333;BME280;11334;36.986;-121.936;2023-05-21T11:17:09;101403.09;;;16.67;96.36
22333;BME280;11334;36.986;-121.936;2023-05-21T11:19:42;101403.75;;;16.69;96.26
22333;BME280;11334;36.986;-121.936;2023-05-21T11:24:44;101408.72;;;16.72;96.00
22333;BME280;11334;36.986;-121.936;2023-05-21T11:27:11;101403.38;;;16.72;95.80
22333;BME280;11334;36.986;-121.936;2023-05-21T11:29:41;101407.06;;;16.71;96.14
22333;BME280;11334;36.986;-121.936;2023-05-21T11:34:45;101405.22;;;16.71;95.53
22333;BME280;11334;36.986;-121.936;2023-05-21T11:39:43;101397.72;;;16.67;95.46
22333;BME280;11334;36.986;-121.936;2023-05-21T11:42:10;101386.84;;;16.68;95.35
22333;BME280;11334;36.986;-121.936;2023-05-21T11:44:43;101386.19;;;16.66;95.28
22333;BME280;11334;36.986;-121.936;2023-05-21T11:47:11;101389.88;;;16.65;95.42
22333;BME280;11334;36.986;-121.936;2023-05-21T11:49:39;101384.50;;;16.65;94.33
22333;BME280;11334;36.986;-121.936;2023-05-21T11:52:07;101392.66;;;16.72;93.56
22333;BME280;11334;36.986;-121.936;2023-05-21T11:54:42;101386.00;;;16.68;93.63
22333;BME280;11334;36.986;-121.936;2023-05-21T11:57:11;101384.34;;;16.67;93.85
22333;BME280;11334;36.986;-121.936;2023-05-21T11:59:41;101395.41;;;16.64;94.34
22333;BME280;11334;36.986;-121.936;2023-05-21T12:02:08;101395.66;;;16.54;94.83
22333;BME280;11334;36.986;-121.936;2023-05-21T12:04:35;101398.78;;;16.58;94.97
22333;BME280;11334;36.986;-121.936;2023-05-21T12:07:05;101396.13;;;16.58;94.73
22333;BME280;11334;36.986;-121.936;2023-05-21T12:09:39;101400.34;;;16.52;95.19
22333;BME280;11334;36.986;-121.936;2023-05-21T12:12:07;101401.91;;;16.47;95.37
22333;BME280;11334;36.986;-121.936;2023-05-21T12:14:36;101394.59;;;16.41;96.54
22333;BME280;11334;36.986;-121.936;2023-05-21T12:17:06;101393.28;;;16.37;97.28
22333;BME280;11334;36.986;-121.936;2023-05-21T12:19:36;101403.97;;;16.37;96.98
22333;BME280;11334;36.986;-121.936;2023-05-21T12:22:03;101386.13;;;16.30;97.42
22333;BME280;11334;36.986;-121.936;2023-05-21T12:24:30;101384.25;;;16.38;97.39
22333;BME280;11334;36.986;-121.936;2023-05-21T12:26:58;101392.38;;;16.44;97.17
22333;BME280;11334;36.986;-121.936;2023-05-21T12:29:27;101386.38;;;16.43;97.33
22333;BME280;11334;36.986;-121.936;2023-05-21T12:31:58;101375.69;;;16.43;97.37
22333;BME280;11334;36.986;-121.936;2023-05-21T12:34:38;101385.09;;;16.39;97.34
22333;BME280;11334;36.986;-121.936;2023-05-21T12:37:06;101388.22;;;16.42;97.21
22333;BME280;11334;36.986;-121.936;2023-05-21T12:39:39;101390.91;;;16.42;97.23
22333;BME280;11334;36.986;-121.936;2023-05-21T12:42:06;101395.94;;;16.37;97.61
22333;BME280;11334;36.986;-121.936;2023-05-21T12:44:33;101399.28;;;16.39;97.51
22333;BME280;11334;36.986;-121.936;2023-05-21T12:46:59;101399.09;;;16.41;97.60
22333;BME280;11334;36.986;-121.936;2023-05-21T12:49:35;101400.25;;;16.46;98.18